Time;durP1;ratioP1;P1;durP2;ratioP2;P2;SDS_P1;SDS_P2;PMS_P1;PMS_P2;Temp;Humidity;BMP_temperature;BMP_pressure;BME280_temperature;BME280_humidity;BME280_pressure;Samples;Min_cycle;Max_cycle;Signal;HPM_P1;HPM_P2
2021/12/29 00:02:18;;;;;;;19.85;7.15;;;;;;;;;;5100169;28;20041;-67
2021/12/29 00:04:44;;;;;;;20.85;6.80;;;;;;;;;;5124490;27;20120;-66
2021/12/29 00:07:10;;;;;;;24.80;7.40;;;;;;;;;;5103950;28;20039;-67
2021/12/29 00:09:39;;;;;;;23.30;7.35;;;;;;;;;;5102919;28;20048;-67
2021/12/29 00:12:07;;;;;;;28.15;8.23;;;;;;;;;;5104110;28;20732;-67
2021/12/29 00:14:33;;;;;;;27.80;8.30;;;;;;;;;;5107001;28;20127;-67
2021/12/29 00:16:59;;;;;;;36.80;9.35;;;;;;;;;;5100875;28;20035;-67
2021/12/29 00:19:25;;;;;;;31.45;9.68;;;;;;;;;;5086758;28;20126;-67
2021/12/29 00:21:51;;;;;;;27.88;8.13;;;;;;;;;;5103540;28;20045;-67
2021/12/29 00:24:17;;;;;;;28.40;8.65;;;;;;;;;;5103426;28;20057;-67
2021/12/29 00:26:43;;;;;;;41.45;9.15;;;;;;;;;;5107107;28;20040;-67
2021/12/29 00:29:10;;;;;;;36.17;9.20;;;;;;;;;;5103697;28;20031;-67
2021/12/29 00:31:36;;;;;;;28.15;8.65;;;;;;;;;;5087910;28;20035;-67
2021/12/29 00:34:02;;;;;;;28.98;7.70;;;;;;;;;;5096338;28;20044;-67
2021/12/29 00:36:28;;;;;;;31.52;9.27;;;;;;;;;;5126008;27;20055;-67
2021/12/29 00:38:54;;;;;;;33.97;9.90;;;;;;;;;;5105783;28;20050;-67
2021/12/29 00:41:20;;;;;;;27.98;8.05;;;;;;;;;;5086055;28;20135;-67
2021/12/29 00:43:47;;;;;;;30.35;8.70;;;;;;;;;;5107157;28;20043;-67
2021/12/29 00:46:13;;;;;;;28.20;8.50;;;;;;;;;;5104867;28;20031;-67
2021/12/29 00:48:44;;;;;;;31.88;9.05;;;;;;;;;;5098217;28;20035;-67
2021/12/29 00:51:11;;;;;;;28.23;8.43;;;;;;;;;;5109233;27;20573;-67
2021/12/29 00:53:37;;;;;;;33.78;9.23;;;;;;;;;;5107199;27;20115;-66
2021/12/29 00:56:04;;;;;;;33.85;8.27;;;;;;;;;;5105759;27;20396;-67
2021/12/29 00:58:30;;;;;;;36.22;8.80;;;;;;;;;;5106222;27;20039;-67
2021/12/29 01:00:57;;;;;;;45.65;9.32;;;;;;;;;;5107810;27;20082;-67
2021/12/29 01:03:23;;;;;;;35.53;9.02;;;;;;;;;;5091218;27;20060;-67
2021/12/29 01:05:50;;;;;;;38.85;9.25;;;;;;;;;;5103455;27;20040;-67
2021/12/29 01:08:16;;;;;;;52.22;9.45;;;;;;;;;;5109100;27;20047;-67
2021/12/29 01:10:42;;;;;;;36.30;9.10;;;;;;;;;;5109548;27;20039;-67
2021/12/29 01:13:10;;;;;;;31.10;8.27;;;;;;;;;;5096655;27;20050;-67
2021/12/29 01:18:34;;;;;;;30.73;8.18;;;;;;;;;;5072770;27;20394;-67
2021/12/29 01:21:00;;;;;;;42.85;9.80;;;;;;;;;;5103760;27;20127;-67
2021/12/29 01:23:26;;;;;;;36.35;9.68;;;;;;;;;;5105467;27;20042;-67
2021/12/29 01:25:52;;;;;;;31.58;9.10;;;;;;;;;;5103053;27;20045;-67
2021/12/29 01:28:18;;;;;;;40.20;10.25;;;;;;;;;;5102985;27;20044;-67
2021/12/29 01:30:44;;;;;;;28.88;8.70;;;;;;;;;;5107884;27;20786;-67
2021/12/29 01:33:10;;;;;;;27.45;7.82;;;;;;;;;;5121271;27;20526;-67
2021/12/29 01:35:40;;;;;;;38.55;10.05;;;;;;;;;;5125548;27;20118;-67
2021/12/29 01:38:07;;;;;;;26.45;9.02;;;;;;;;;;5108387;27;20148;-67
2021/12/29 01:40:35;;;;;;;39.28;10.95;;;;;;;;;;5125512;27;20048;-67
2021/12/29 01:43:02;;;;;;;22.83;9.30;;;;;;;;;;5107040;27;20504;-67
2021/12/29 01:45:28;;;;;;;28.83;9.73;;;;;;;;;;5109345;27;20035;-67
2021/12/29 01:47:54;;;;;;;28.67;10.05;;;;;;;;;;5103987;27;20047;-67
2021/12/29 01:50:22;;;;;;;26.10;10.80;;;;;;;;;;5125285;27;20039;-67
2021/12/29 01:52:54;;;;;;;35.42;12.45;;;;;;;;;;5125992;27;20043;-67
2021/12/29 01:55:22;;;;;;;32.58;11.32;;;;;;;;;;5125814;27;20490;-67
2021/12/29 01:57:48;;;;;;;28.88;11.65;;;;;;;;;;5124968;27;20045;-66
2021/12/29 02:00:19;;;;;;;23.25;10.57;;;;;;;;;;5109065;27;20050;-67
2021/12/29 02:02:45;;;;;;;26.63;11.93;;;;;;;;;;5088155;27;20076;-67
2021/12/29 02:05:11;;;;;;;27.85;11.75;;;;;;;;;;5105371;27;21108;-67
2021/12/29 02:07:37;;;;;;;30.90;12.35;;;;;;;;;;5106189;27;20513;-67
2021/12/29 02:10:05;;;;;;;29.23;12.30;;;;;;;;;;5108085;27;20120;-67
2021/12/29 02:12:31;;;;;;;38.95;14.02;;;;;;;;;;5106034;27;20043;-67
2021/12/29 02:14:57;;;;;;;33.72;13.88;;;;;;;;;;5100270;27;20066;-67
2021/12/29 02:17:23;;;;;;;23.25;11.75;;;;;;;;;;5089006;27;20043;-68
2021/12/29 02:19:51;;;;;;;32.55;12.43;;;;;;;;;;5101510;27;20476;-67
2021/12/29 02:22:38;;;;;;;23.55;11.07;;;;;;;;;;5105482;27;20402;-67
2021/12/29 02:27:48;;;;;;;21.83;10.40;;;;;;;;;;5102337;27;20118;-67
2021/12/29 02:30:15;;;;;;;16.27;8.55;;;;;;;;;;5104479;27;20511;-67
2021/12/29 02:32:42;;;;;;;18.15;9.48;;;;;;;;;;5103480;27;20543;-67
2021/12/29 02:35:08;;;;;;;21.63;9.10;;;;;;;;;;5104332;27;20052;-67
2021/12/29 02:37:34;;;;;;;21.15;9.70;;;;;;;;;;5103432;27;20122;-66
2021/12/29 02:40:01;;;;;;;22.73;9.52;;;;;;;;;;5095964;27;20047;-66
2021/12/29 02:42:30;;;;;;;18.00;9.57;;;;;;;;;;5102738;27;20040;-66
2021/12/29 02:45:01;;;;;;;20.33;9.27;;;;;;;;;;5101870;27;20054;-66
2021/12/29 02:47:27;;;;;;;24.38;9.55;;;;;;;;;;5101239;27;20063;-66
2021/12/29 02:49:53;;;;;;;21.85;8.95;;;;;;;;;;5086575;27;20035;-66
2021/12/29 02:52:19;;;;;;;21.88;9.82;;;;;;;;;;5087922;27;20164;-67
2021/12/29 02:54:45;;;;;;;22.27;9.70;;;;;;;;;;5091325;27;20063;-67
2021/12/29 02:57:11;;;;;;;20.02;8.82;;;;;;;;;;5104288;27;20051;-66
2021/12/29 02:59:37;;;;;;;20.10;9.15;;;;;;;;;;5109092;27;20043;-66
2021/12/29 03:02:03;;;;;;;16.48;9.85;;;;;;;;;;5104273;27;20049;-66
2021/12/29 03:04:30;;;;;;;27.45;9.95;;;;;;;;;;5107007;27;20039;-66
2021/12/29 03:06:56;;;;;;;30.83;11.43;;;;;;;;;;5105546;27;20109;-66
2021/12/29 03:09:22;;;;;;;22.67;10.48;;;;;;;;;;5105004;27;20047;-67
2021/12/29 03:11:48;;;;;;;24.00;10.95;;;;;;;;;;5103889;28;20057;-66
2021/12/29 03:14:15;;;;;;;28.17;12.23;;;;;;;;;;5105659;27;20047;-66
2021/12/29 03:16:41;;;;;;;26.52;12.23;;;;;;;;;;5125350;27;20038;-67
2021/12/29 03:19:07;;;;;;;30.15;12.38;;;;;;;;;;5104640;27;20051;-66
2021/12/29 03:21:34;;;;;;;24.73;12.85;;;;;;;;;;5106590;27;20046;-66
2021/12/29 03:24:00;;;;;;;22.05;10.98;;;;;;;;;;5104770;27;20088;-67
2021/12/29 03:26:26;;;;;;;23.80;11.32;;;;;;;;;;5104901;27;20047;-66
2021/12/29 03:28:53;;;;;;;28.98;12.38;;;;;;;;;;5103397;27;20096;-66
2021/12/29 03:31:21;;;;;;;29.33;11.85;;;;;;;;;;5107970;27;20372;-66
2021/12/29 03:33:47;;;;;;;25.75;11.18;;;;;;;;;;5105519;27;20043;-66
2021/12/29 03:36:14;;;;;;;27.70;11.95;;;;;;;;;;5106201;27;20035;-66
2021/12/29 03:38:41;;;;;;;27.90;12.23;;;;;;;;;;5105332;27;20043;-67
2021/12/29 03:41:08;;;;;;;22.83;12.18;;;;;;;;;;5107294;27;20050;-66
2021/12/29 03:43:34;;;;;;;23.85;11.32;;;;;;;;;;5108106;27;20030;-66
2021/12/29 03:46:02;;;;;;;26.15;10.70;;;;;;;;;;5103213;27;20039;-66
2021/12/29 03:48:28;;;;;;;26.20;12.30;;;;;;;;;;5104747;27;20046;-66
2021/12/29 03:50:55;;;;;;;22.65;11.27;;;;;;;;;;5123855;27;20118;-66
2021/12/29 03:53:21;;;;;;;23.48;13.00;;;;;;;;;;5107908;27;20042;-66
2021/12/29 03:55:49;;;;;;;26.40;13.18;;;;;;;;;;5106882;28;20039;-67
2021/12/29 03:58:16;;;;;;;30.73;13.55;;;;;;;;;;5106915;28;20047;-66
2021/12/29 04:00:42;;;;;;;27.10;13.63;;;;;;;;;;5102606;27;20058;-66
2021/12/29 04:03:08;;;;;;;38.33;15.93;;;;;;;;;;5102215;28;20443;-66
2021/12/29 04:05:34;;;;;;;36.15;16.17;;;;;;;;;;5107226;27;20425;-66
2021/12/29 04:08:02;;;;;;;24.63;12.95;;;;;;;;;;5106822;28;20047;-67
2021/12/29 04:10:28;;;;;;;27.75;14.88;;;;;;;;;;5090438;28;20041;-67
2021/12/29 04:12:55;;;;;;;35.72;15.98;;;;;;;;;;5108726;28;20517;-66
2021/12/29 04:15:21;;;;;;;36.30;15.15;;;;;;;;;;5092255;28;20359;-66
2021/12/29 04:17:48;;;;;;;37.72;15.80;;;;;;;;;;5105254;28;20039;-67
2021/12/29 04:22:59;;;;;;;39.03;16.05;;;;;;;;;;5107811;27;20067;-66
2021/12/29 04:25:26;;;;;;;34.17;14.55;;;;;;;;;;5111778;27;20039;-66
2021/12/29 04:27:56;;;;;;;40.05;14.60;;;;;;;;;;5111226;27;20047;-66
2021/12/29 04:30:23;;;;;;;31.35;14.00;;;;;;;;;;5111878;27;20035;-66
2021/12/29 04:32:52;;;;;;;27.63;11.95;;;;;;;;;;5110267;27;20070;-66
2021/12/29 04:35:18;;;;;;;28.95;12.20;;;;;;;;;;5111084;27;20045;-66
2021/12/29 04:37:44;;;;;;;37.17;13.35;;;;;;;;;;5110270;27;20497;-67
2021/12/29 04:40:10;;;;;;;33.70;12.82;;;;;;;;;;5108564;27;20041;-66
2021/12/29 04:42:36;;;;;;;23.73;10.75;;;;;;;;;;5112149;27;20172;-66
2021/12/29 04:45:03;;;;;;;31.73;12.18;;;;;;;;;;5092865;27;20039;-66
2021/12/29 04:47:30;;;;;;;34.28;13.30;;;;;;;;;;5110564;27;20067;-66
2021/12/29 04:50:02;;;;;;;31.00;11.50;;;;;;;;;;5110927;27;20031;-66
2021/12/29 04:52:29;;;;;;;31.83;11.70;;;;;;;;;;5110935;27;20069;-66
2021/12/29 04:54:55;;;;;;;30.63;12.32;;;;;;;;;;5108591;27;20031;-66
2021/12/29 04:57:21;;;;;;;28.00;12.18;;;;;;;;;;5111841;27;20092;-66
2021/12/29 04:59:47;;;;;;;34.83;12.50;;;;;;;;;;5095094;27;20078;-67
2021/12/29 05:02:13;;;;;;;44.67;14.38;;;;;;;;;;5110889;27;20087;-67
2021/12/29 05:04:46;;;;;;;29.67;11.40;;;;;;;;;;5110434;27;20074;-66
2021/12/29 05:09:58;;;;;;;26.95;11.00;;;;;;;;;;5109938;27;20047;-66
2021/12/29 05:12:24;;;;;;;25.88;10.40;;;;;;;;;;5111294;27;20112;-66
2021/12/29 05:14:50;;;;;;;32.00;11.15;;;;;;;;;;5107941;27;20043;-67
2021/12/29 05:17:17;;;;;;;29.02;10.77;;;;;;;;;;5102990;27;20108;-67
2021/12/29 05:19:43;;;;;;;32.22;11.82;;;;;;;;;;5109597;27;20031;-66
2021/12/29 05:22:09;;;;;;;44.25;12.50;;;;;;;;;;5126018;27;20042;-67
2021/12/29 05:24:35;;;;;;;30.25;12.27;;;;;;;;;;5127062;27;20045;-66
2021/12/29 05:27:02;;;;;;;32.22;10.40;;;;;;;;;;5109932;27;20044;-67
2021/12/29 05:29:28;;;;;;;37.60;11.65;;;;;;;;;;5091830;27;20505;-66
2021/12/29 05:31:54;;;;;;;41.08;12.52;;;;;;;;;;5110290;27;20039;-66
2021/12/29 05:34:20;;;;;;;37.35;11.98;;;;;;;;;;5109340;28;20054;-67
2021/12/29 05:36:47;;;;;;;38.60;12.02;;;;;;;;;;5091615;28;20591;-66
2021/12/29 05:39:13;;;;;;;35.90;12.27;;;;;;;;;;5126676;28;20043;-66
2021/12/29 05:41:40;;;;;;;28.60;10.27;;;;;;;;;;5109367;28;20066;-66
2021/12/29 05:44:06;;;;;;;33.35;11.00;;;;;;;;;;5104665;28;20039;-66
2021/12/29 05:46:32;;;;;;;31.38;11.85;;;;;;;;;;5107162;28;20047;-66
2021/12/29 05:48:58;;;;;;;33.65;11.45;;;;;;;;;;5107578;28;20130;-67
2021/12/29 05:51:24;;;;;;;32.15;11.45;;;;;;;;;;5106294;28;20039;-66
2021/12/29 05:53:50;;;;;;;28.83;10.50;;;;;;;;;;5103325;28;20104;-66
2021/12/29 05:56:17;;;;;;;33.38;11.20;;;;;;;;;;5087271;28;20062;-66
2021/12/29 05:58:43;;;;;;;36.60;11.10;;;;;;;;;;5106850;28;20126;-66
2021/12/29 06:01:09;;;;;;;38.58;10.88;;;;;;;;;;5105935;28;20047;-66
2021/12/29 06:03:36;;;;;;;33.65;10.82;;;;;;;;;;5104555;28;20034;-66
2021/12/29 06:06:03;;;;;;;35.05;10.27;;;;;;;;;;5107054;28;20039;-67
2021/12/29 06:08:29;;;;;;;34.60;11.15;;;;;;;;;;5104553;28;20118;-66
2021/12/29 06:10:55;;;;;;;39.33;11.63;;;;;;;;;;5106459;28;20040;-66
2021/12/29 06:13:21;;;;;;;38.75;12.05;;;;;;;;;;5107621;28;20042;-66
2021/12/29 06:15:47;;;;;;;32.65;10.57;;;;;;;;;;5108287;28;20047;-66
2021/12/29 06:18:13;;;;;;;30.17;10.45;;;;;;;;;;5102671;28;20108;-67
2021/12/29 06:20:39;;;;;;;34.55;11.55;;;;;;;;;;5105695;28;20070;-66
2021/12/29 06:23:07;;;;;;;33.70;11.27;;;;;;;;;;5108846;28;20051;-66
2021/12/29 06:25:33;;;;;;;38.13;11.80;;;;;;;;;;5101673;28;20039;-66
2021/12/29 06:27:59;;;;;;;38.05;11.77;;;;;;;;;;5091289;28;20031;-66
2021/12/29 06:30:25;;;;;;;30.75;10.98;;;;;;;;;;5090715;28;20039;-66
2021/12/29 06:32:51;;;;;;;39.47;11.17;;;;;;;;;;5064276;27;1103945;-66
2021/12/29 06:35:18;;;;;;;36.28;10.98;;;;;;;;;;5125696;27;20441;-66
2021/12/29 06:37:44;;;;;;;30.77;10.73;;;;;;;;;;5126626;27;20046;-66
2021/12/29 06:40:11;;;;;;;35.92;11.48;;;;;;;;;;5105408;27;20495;-67
2021/12/29 06:42:37;;;;;;;44.20;11.98;;;;;;;;;;5106457;27;20394;-66
2021/12/29 06:45:04;;;;;;;33.42;10.50;;;;;;;;;;5106228;27;20042;-65
2021/12/29 06:47:30;;;;;;;34.90;10.77;;;;;;;;;;5101331;27;20051;-66
2021/12/29 06:49:56;;;;;;;35.08;11.02;;;;;;;;;;5122460;27;20376;-66
2021/12/29 06:52:22;;;;;;;26.90;9.68;;;;;;;;;;5105890;27;20121;-66
2021/12/29 06:54:48;;;;;;;29.55;11.48;;;;;;;;;;5126784;27;20039;-66
2021/12/29 06:57:14;;;;;;;36.53;10.60;;;;;;;;;;5107573;27;20429;-66
2021/12/29 06:59:42;;;;;;;24.25;9.73;;;;;;;;;;5124345;27;20467;-66
2021/12/29 07:02:09;;;;;;;30.85;10.90;;;;;;;;;;5125110;27;20557;-66
2021/12/29 07:04:35;;;;;;;31.60;9.75;;;;;;;;;;5108148;27;20035;-66
2021/12/29 07:07:01;;;;;;;31.25;10.73;;;;;;;;;;5105708;27;20035;-66
2021/12/29 07:09:28;;;;;;;32.60;9.88;;;;;;;;;;5103160;27;20130;-66
2021/12/29 07:11:54;;;;;;;26.75;9.60;;;;;;;;;;5102859;27;20364;-66
2021/12/29 07:14:21;;;;;;;26.30;9.35;;;;;;;;;;5105897;27;20062;-66
2021/12/29 07:16:48;;;;;;;22.70;8.60;;;;;;;;;;5103900;27;20112;-66
2021/12/29 07:19:15;;;;;;;27.35;8.48;;;;;;;;;;5105039;27;20051;-66
2021/12/29 07:21:41;;;;;;;22.77;8.25;;;;;;;;;;5126834;27;20054;-65
2021/12/29 07:24:08;;;;;;;22.20;7.85;;;;;;;;;;5107444;27;20039;-66
2021/12/29 07:26:34;;;;;;;19.90;7.55;;;;;;;;;;5105483;27;20039;-66
2021/12/29 07:29:01;;;;;;;19.75;7.57;;;;;;;;;;5105929;27;20479;-66
2021/12/29 07:31:27;;;;;;;23.83;7.82;;;;;;;;;;5108458;27;20073;-66
2021/12/29 07:33:54;;;;;;;18.83;7.35;;;;;;;;;;5107517;27;20039;-66
2021/12/29 07:36:20;;;;;;;27.05;8.43;;;;;;;;;;5084585;28;20048;-66
2021/12/29 07:38:46;;;;;;;29.65;8.48;;;;;;;;;;5105911;27;20047;-66
2021/12/29 07:41:12;;;;;;;46.22;10.07;;;;;;;;;;5106942;27;20092;-66
2021/12/29 07:43:39;;;;;;;22.48;8.40;;;;;;;;;;5104335;27;20646;-66
2021/12/29 07:46:06;;;;;;;25.45;8.20;;;;;;;;;;5083405;27;20055;-66
2021/12/29 07:48:32;;;;;;;34.67;9.65;;;;;;;;;;5105283;27;20050;-66
2021/12/29 07:50:58;;;;;;;32.25;9.70;;;;;;;;;;5107495;27;20073;-66
2021/12/29 07:53:25;;;;;;;32.80;8.98;;;;;;;;;;5105860;27;20073;-66
2021/12/29 07:55:51;;;;;;;29.60;8.50;;;;;;;;;;5124500;27;20028;-66
2021/12/29 07:58:17;;;;;;;45.13;10.27;;;;;;;;;;5124720;27;20044;-68
2021/12/29 08:00:44;;;;;;;27.20;9.40;;;;;;;;;;5124349;27;20091;-66
2021/12/29 08:03:14;;;;;;;30.33;9.30;;;;;;;;;;5105300;28;20497;-66
2021/12/29 08:05:41;;;;;;;30.92;9.55;;;;;;;;;;5071131;28;20390;-66
2021/12/29 08:08:07;;;;;;;42.10;10.43;;;;;;;;;;5091411;28;20138;-67
2021/12/29 08:10:34;;;;;;;30.92;9.27;;;;;;;;;;5119820;27;20031;-67
2021/12/29 08:13:00;;;;;;;48.00;10.98;;;;;;;;;;5105468;28;20035;-67
2021/12/29 08:15:26;;;;;;;40.72;10.57;;;;;;;;;;5121807;28;20027;-67
2021/12/29 08:17:52;;;;;;;27.92;10.88;;;;;;;;;;5104082;28;20043;-66
2021/12/29 08:20:19;;;;;;;43.90;12.32;;;;;;;;;;5123278;27;20574;-67
2021/12/29 08:22:45;;;;;;;38.17;11.27;;;;;;;;;;5121559;28;20083;-67
2021/12/29 08:25:11;;;;;;;39.95;11.95;;;;;;;;;;5104191;28;20130;-67
2021/12/29 08:27:38;;;;;;;70.00;14.10;;;;;;;;;;5107742;28;20040;-67
2021/12/29 08:30:05;;;;;;;36.03;11.40;;;;;;;;;;5107108;28;20052;-67
2021/12/29 08:32:32;;;;;;;47.65;12.55;;;;;;;;;;5086553;28;20039;-67
2021/12/29 08:34:58;;;;;;;33.05;11.70;;;;;;;;;;5104394;28;20081;-67
2021/12/29 08:37:24;;;;;;;74.45;14.07;;;;;;;;;;5120173;27;20062;-67
2021/12/29 08:39:50;;;;;;;53.92;13.18;;;;;;;;;;5104028;28;20118;-67
2021/12/29 08:42:16;;;;;;;44.58;12.73;;;;;;;;;;5084914;28;20463;-67
2021/12/29 08:44:42;;;;;;;45.83;13.40;;;;;;;;;;5103207;28;20519;-67
2021/12/29 08:47:09;;;;;;;28.33;10.68;;;;;;;;;;5101119;28;20039;-66
2021/12/29 08:49:35;;;;;;;28.42;10.80;;;;;;;;;;5123232;27;20482;-67
2021/12/29 08:52:01;;;;;;;29.52;11.27;;;;;;;;;;5102669;28;20468;-67
2021/12/29 08:54:27;;;;;;;26.33;10.18;;;;;;;;;;5105036;28;20042;-67
2021/12/29 08:56:54;;;;;;;27.20;10.40;;;;;;;;;;5106680;28;20455;-67
2021/12/29 08:59:20;;;;;;;24.08;9.30;;;;;;;;;;5105380;28;20051;-67
2021/12/29 09:01:47;;;;;;;25.17;9.07;;;;;;;;;;5125132;28;20852;-67
2021/12/29 09:04:13;;;;;;;21.08;8.45;;;;;;;;;;5100616;28;20031;-67
2021/12/29 09:06:39;;;;;;;24.50;8.93;;;;;;;;;;5117892;28;20058;-67
2021/12/29 09:09:05;;;;;;;27.48;9.30;;;;;;;;;;5105300;28;20035;-67
2021/12/29 09:11:31;;;;;;;23.13;8.50;;;;;;;;;;5091497;27;20038;-67
2021/12/29 09:13:59;;;;;;;24.90;9.23;;;;;;;;;;5124765;27;20556;-67
2021/12/29 09:16:25;;;;;;;17.70;8.82;;;;;;;;;;5126137;27;20058;-67
2021/12/29 09:18:52;;;;;;;20.20;8.52;;;;;;;;;;5104841;27;20049;-67
2021/12/29 09:21:18;;;;;;;25.58;10.00;;;;;;;;;;5105682;27;20068;-67
2021/12/29 09:23:45;;;;;;;26.20;9.52;;;;;;;;;;5109754;27;20096;-67
2021/12/29 09:26:12;;;;;;;24.98;10.27;;;;;;;;;;5108269;27;20035;-67
2021/12/29 09:28:38;;;;;;;22.85;9.57;;;;;;;;;;5107798;27;20100;-67
2021/12/29 09:31:04;;;;;;;20.42;8.77;;;;;;;;;;5107417;27;20051;-67
2021/12/29 09:33:30;;;;;;;18.05;8.77;;;;;;;;;;5102771;27;20053;-67
2021/12/29 09:36:02;;;;;;;18.52;8.52;;;;;;;;;;5102646;27;20046;-67
2021/12/29 09:38:31;;;;;;;21.50;8.77;;;;;;;;;;5105645;27;20115;-67
2021/12/29 09:40:58;;;;;;;24.42;7.88;;;;;;;;;;5102676;27;20463;-67
2021/12/29 09:43:24;;;;;;;22.42;8.05;;;;;;;;;;5085574;27;20043;-67
2021/12/29 09:45:51;;;;;;;20.10;6.93;;;;;;;;;;5107221;27;20039;-67
2021/12/29 09:48:17;;;;;;;20.63;7.13;;;;;;;;;;5086373;27;20142;-67
2021/12/29 09:50:44;;;;;;;18.30;6.47;;;;;;;;;;5108873;27;20647;-67
2021/12/29 09:53:10;;;;;;;23.00;7.13;;;;;;;;;;5108923;27;20399;-67
2021/12/29 09:55:37;;;;;;;22.65;6.90;;;;;;;;;;5109188;27;20047;-67
2021/12/29 09:58:04;;;;;;;19.42;6.22;;;;;;;;;;5106590;27;20042;-67
2021/12/29 10:00:35;;;;;;;21.52;6.00;;;;;;;;;;5122449;27;20580;-67
2021/12/29 10:03:05;;;;;;;23.23;6.57;;;;;;;;;;5106570;27;20042;-67
2021/12/29 10:05:32;;;;;;;30.02;6.43;;;;;;;;;;5102917;27;20065;-67
2021/12/29 10:08:17;;;;;;;21.90;5.35;;;;;;;;;;5105574;27;20068;-67
2021/12/29 10:10:46;;;;;;;21.27;5.43;;;;;;;;;;5101115;27;20043;-67
2021/12/29 10:13:12;;;;;;;20.88;5.35;;;;;;;;;;5106875;27;20031;-67
2021/12/29 10:15:44;;;;;;;21.85;5.60;;;;;;;;;;5106831;27;20122;-67
2021/12/29 10:18:15;;;;;;;24.80;5.45;;;;;;;;;;5104639;27;20042;-66
2021/12/29 10:21:05;;;;;;;26.52;5.80;;;;;;;;;;5107118;27;20051;-67
2021/12/29 10:23:32;;;;;;;22.23;5.55;;;;;;;;;;5095259;27;20039;-66
2021/12/29 10:26:08;;;;;;;18.50;4.43;;;;;;;;;;5125870;27;20099;-66
2021/12/29 10:28:35;;;;;;;22.10;5.18;;;;;;;;;;5107453;27;20067;-66
2021/12/29 10:31:11;;;;;;;25.70;5.72;;;;;;;;;;5088750;27;20047;-66
2021/12/29 10:33:39;;;;;;;20.27;5.40;;;;;;;;;;5105487;27;20149;-66
2021/12/29 10:36:12;;;;;;;22.40;5.90;;;;;;;;;;5102184;27;20126;-66
2021/12/29 10:38:38;;;;;;;28.65;6.50;;;;;;;;;;5123234;27;20055;-66
2021/12/29 10:41:04;;;;;;;23.27;6.55;;;;;;;;;;5125346;27;20056;-66
2021/12/29 10:43:30;;;;;;;27.13;6.25;;;;;;;;;;5107895;27;20027;-66
2021/12/29 10:45:59;;;;;;;25.10;6.10;;;;;;;;;;5105207;27;20050;-66
2021/12/29 10:48:29;;;;;;;22.83;6.20;;;;;;;;;;5104749;27;20088;-65
2021/12/29 10:50:56;;;;;;;24.90;5.78;;;;;;;;;;5104898;27;20055;-66
2021/12/29 10:53:22;;;;;;;26.88;5.72;;;;;;;;;;5106333;27;20050;-66
2021/12/29 10:55:49;;;;;;;21.52;5.90;;;;;;;;;;5104597;27;20528;-66
2021/12/29 10:58:17;;;;;;;25.60;6.18;;;;;;;;;;5098827;27;20042;-66
2021/12/29 11:00:45;;;;;;;23.90;5.32;;;;;;;;;;5098322;27;21580;-66
2021/12/29 11:03:21;;;;;;;31.08;6.15;;;;;;;;;;5105049;27;20039;-66
2021/12/29 11:05:53;;;;;;;31.17;6.20;;;;;;;;;;5101217;27;20053;-66
2021/12/29 11:08:19;;;;;;;23.95;6.03;;;;;;;;;;5103486;27;20047;-66
2021/12/29 11:10:46;;;;;;;32.53;6.32;;;;;;;;;;5100666;27;20390;-66
2021/12/29 11:13:12;;;;;;;24.98;6.35;;;;;;;;;;5103359;27;20039;-66
2021/12/29 11:15:41;;;;;;;22.33;5.72;;;;;;;;;;5107869;27;20035;-66
2021/12/29 11:18:11;;;;;;;23.90;5.80;;;;;;;;;;5094897;27;21278;-67
2021/12/29 11:20:39;;;;;;;26.58;6.43;;;;;;;;;;5101872;27;20101;-66
2021/12/29 11:23:05;;;;;;;24.77;6.05;;;;;;;;;;5107128;27;20444;-66
2021/12/29 11:25:32;;;;;;;36.20;6.50;;;;;;;;;;5101107;28;20443;-66
2021/12/29 11:27:58;;;;;;;27.40;5.93;;;;;;;;;;5121583;27;20078;-66
2021/12/29 11:30:24;;;;;;;25.77;6.07;;;;;;;;;;5084101;27;20123;-66
2021/12/29 11:32:51;;;;;;;22.02;5.50;;;;;;;;;;5103975;27;20051;-66
2021/12/29 11:35:19;;;;;;;31.13;7.15;;;;;;;;;;5095175;27;20046;-66
2021/12/29 11:37:47;;;;;;;28.60;6.68;;;;;;;;;;5107891;27;20053;-66
2021/12/29 11:40:15;;;;;;;31.98;7.45;;;;;;;;;;5102337;27;20094;-66
2021/12/29 11:42:41;;;;;;;28.92;7.13;;;;;;;;;;5105049;27;20059;-66
2021/12/29 11:45:08;;;;;;;22.65;7.10;;;;;;;;;;5097530;27;20039;-66
2021/12/29 11:47:34;;;;;;;28.02;7.35;;;;;;;;;;5102834;27;20043;-66
2021/12/29 11:50:01;;;;;;;24.25;7.22;;;;;;;;;;5103851;27;20039;-66
2021/12/29 11:52:33;;;;;;;29.30;6.90;;;;;;;;;;5106081;27;20039;-67
2021/12/29 11:55:26;;;;;;;32.85;7.78;;;;;;;;;;5106282;27;20045;-66
2021/12/29 11:57:52;;;;;;;30.60;7.57;;;;;;;;;;5103117;27;20069;-66
2021/12/29 12:00:21;;;;;;;25.90;8.27;;;;;;;;;;5121798;27;20095;-66
2021/12/29 12:02:48;;;;;;;28.63;8.85;;;;;;;;;;5123538;27;20043;-66
2021/12/29 12:05:15;;;;;;;33.78;9.63;;;;;;;;;;5104720;27;20059;-66
2021/12/29 12:07:42;;;;;;;25.40;8.90;;;;;;;;;;5101842;28;20129;-66
2021/12/29 12:10:12;;;;;;;30.02;10.13;;;;;;;;;;5100724;28;20491;-66
2021/12/29 12:12:44;;;;;;;26.55;9.30;;;;;;;;;;5094073;28;20072;-66
2021/12/29 12:15:12;;;;;;;24.27;9.73;;;;;;;;;;5102511;28;20039;-66
2021/12/29 12:17:39;;;;;;;29.05;9.90;;;;;;;;;;5094212;28;20047;-66
2021/12/29 12:20:05;;;;;;;21.52;9.73;;;;;;;;;;5093279;28;20047;-66
2021/12/29 12:22:41;;;;;;;25.17;10.55;;;;;;;;;;5103786;28;20474;-67
2021/12/29 12:25:07;;;;;;;21.52;10.55;;;;;;;;;;5098389;28;20039;-66
2021/12/29 12:27:39;;;;;;;26.02;9.55;;;;;;;;;;5094115;28;20369;-66
2021/12/29 12:30:19;;;;;;;18.17;9.23;;;;;;;;;;5093305;28;20560;-67
2021/12/29 12:32:56;;;;;;;22.42;9.20;;;;;;;;;;5093081;27;20129;-67
2021/12/29 12:35:42;;;;;;;26.08;10.07;;;;;;;;;;5046140;28;20041;-66
2021/12/29 12:38:17;;;;;;;25.90;10.40;;;;;;;;;;5063740;28;20102;-65
2021/12/29 12:40:43;;;;;;;25.83;10.50;;;;;;;;;;5063935;28;20480;-65
2021/12/29 12:43:12;;;;;;;19.98;9.73;;;;;;;;;;5064314;28;20048;-65
2021/12/29 12:45:43;;;;;;;20.02;8.40;;;;;;;;;;5065870;28;20792;-66
2021/12/29 12:48:19;;;;;;;24.83;10.27;;;;;;;;;;5065753;28;20160;-66
2021/12/29 12:50:45;;;;;;;23.83;9.88;;;;;;;;;;5065354;28;20037;-66
2021/12/29 12:53:13;;;;;;;23.83;9.50;;;;;;;;;;5067592;28;20072;-65
2021/12/29 12:55:51;;;;;;;24.83;9.73;;;;;;;;;;5065545;28;20036;-65
2021/12/29 12:58:17;;;;;;;29.55;9.57;;;;;;;;;;5066868;28;20047;-65
2021/12/29 13:00:54;;;;;;;19.08;9.68;;;;;;;;;;5066011;28;20052;-66
2021/12/29 13:03:22;;;;;;;24.33;9.93;;;;;;;;;;5067142;28;20040;-65
2021/12/29 13:05:51;;;;;;;21.05;10.00;;;;;;;;;;5067954;28;20064;-65
2021/12/29 13:08:31;;;;;;;25.08;10.75;;;;;;;;;;5067877;28;20480;-65
2021/12/29 13:11:04;;;;;;;25.77;10.90;;;;;;;;;;5066128;28;20044;-65
2021/12/29 13:13:32;;;;;;;22.05;11.45;;;;;;;;;;5067988;28;20037;-65
2021/12/29 13:16:00;;;;;;;21.67;11.70;;;;;;;;;;5066538;28;20390;-65
2021/12/29 13:18:27;;;;;;;26.02;12.57;;;;;;;;;;5065806;28;20067;-65
2021/12/29 13:20:57;;;;;;;20.38;12.23;;;;;;;;;;5066940;28;20063;-65
2021/12/29 13:23:23;;;;;;;27.15;12.23;;;;;;;;;;5067049;28;20044;-65
2021/12/29 13:25:51;;;;;;;24.88;13.07;;;;;;;;;;5064191;28;20044;-68
2021/12/29 13:28:18;;;;;;;27.13;13.10;;;;;;;;;;5066550;28;20041;-67
2021/12/29 13:31:05;;;;;;;21.95;12.32;;;;;;;;;;5065272;28;20048;-68
2021/12/29 13:33:36;;;;;;;17.30;12.00;;;;;;;;;;5075382;28;20130;-67
2021/12/29 13:36:03;;;;;;;23.83;13.60;;;;;;;;;;5096184;28;20040;-67
2021/12/29 13:38:32;;;;;;;20.15;10.90;;;;;;;;;;5096188;28;20399;-68
2021/12/29 13:41:08;;;;;;;24.58;13.07;;;;;;;;;;5099245;28;20051;-67
2021/12/29 13:43:36;;;;;;;24.88;13.55;;;;;;;;;;5094991;28;20111;-67
2021/12/29 13:46:15;;;;;;;23.00;12.68;;;;;;;;;;5104271;28;20531;-68
2021/12/29 13:48:42;;;;;;;19.40;11.82;;;;;;;;;;5104658;28;20460;-67
2021/12/29 13:51:09;;;;;;;24.23;13.30;;;;;;;;;;5100497;28;20472;-67
2021/12/29 13:53:37;;;;;;;28.95;13.98;;;;;;;;;;5095444;28;20039;-68
2021/12/29 13:56:07;;;;;;;24.65;13.50;;;;;;;;;;5093874;28;20094;-68
2021/12/29 13:58:33;;;;;;;23.65;14.77;;;;;;;;;;5095531;28;20100;-68
2021/12/29 14:01:01;;;;;;;24.15;14.60;;;;;;;;;;5097750;27;20100;-68
2021/12/29 14:03:27;;;;;;;24.10;15.27;;;;;;;;;;5100171;28;20379;-68
2021/12/29 14:05:59;;;;;;;20.83;14.80;;;;;;;;;;5098214;28;21137;-68
2021/12/29 14:08:25;;;;;;;22.98;14.98;;;;;;;;;;5093786;28;20073;-68
2021/12/29 14:10:51;;;;;;;21.45;15.98;;;;;;;;;;5097390;28;20040;-68
2021/12/29 14:13:19;;;;;;;22.17;15.40;;;;;;;;;;5097014;28;20512;-68
2021/12/29 14:15:45;;;;;;;22.83;16.67;;;;;;;;;;5100031;28;20485;-69
2021/12/29 14:18:23;;;;;;;22.30;14.68;;;;;;;;;;5095349;28;20495;-69
2021/12/29 14:20:53;;;;;;;21.40;15.57;;;;;;;;;;5099530;28;20031;-70
2021/12/29 14:23:20;;;;;;;22.88;14.70;;;;;;;;;;5098510;28;20061;-69
2021/12/29 14:25:47;;;;;;;26.42;17.23;;;;;;;;;;5091883;28;20035;-69
2021/12/29 14:28:17;;;;;;;28.13;16.15;;;;;;;;;;5097518;28;20488;-70
2021/12/29 14:30:44;;;;;;;24.50;15.15;;;;;;;;;;5102356;28;20058;-70
2021/12/29 14:33:11;;;;;;;30.77;16.00;;;;;;;;;;5099147;27;20052;-70
2021/12/29 14:35:48;;;;;;;26.45;18.23;;;;;;;;;;5103497;27;20183;-69
2021/12/29 14:38:14;;;;;;;25.40;16.42;;;;;;;;;;5106389;27;20132;-70